createdAt,value
2023-04-29T00:03:33.544Z,6.63
2023-04-29T00:07:45.715Z,6.83
2023-04-29T00:11:55.824Z,6.60
2023-04-29T00:16:06.698Z,6.60
2023-04-29T00:20:17.395Z,6.40
2023-04-29T00:24:29.190Z,6.47
2023-04-29T00:28:39.819Z,6.37
2023-04-29T00:32:50.423Z,6.27
2023-04-29T00:37:00.663Z,6.50
2023-04-29T00:41:12.249Z,6.33
2023-04-29T00:45:22.334Z,6.63
2023-04-29T00:49:32.556Z,7.00
2023-04-29T00:53:42.532Z,6.30
2023-04-29T00:57:55.363Z,7.07
2023-04-29T01:02:06.864Z,6.60
2023-04-29T01:06:26.622Z,5.50
2023-04-29T01:10:44.139Z,6.13
2023-04-29T01:15:04.532Z,5.00
2023-04-29T01:19:25.173Z,5.63
2023-04-29T01:23:36.389Z,5.43
2023-04-29T01:27:56.020Z,5.53
2023-04-29T01:32:09.906Z,5.47
2023-04-29T01:36:31.924Z,5.23
2023-04-29T01:40:57.659Z,5.43
2023-04-29T01:45:11.534Z,6.27
2023-04-29T01:49:24.772Z,6.37
2023-04-29T01:53:35.246Z,6.77
2023-04-29T01:57:47.423Z,6.03
2023-04-29T02:01:59.704Z,6.30
2023-04-29T02:06:10.040Z,6.57
2023-04-29T02:10:19.038Z,6.53
2023-04-29T02:14:29.650Z,6.43
2023-04-29T02:18:38.939Z,6.77
2023-04-29T02:22:47.968Z,6.83
2023-04-29T02:26:57.403Z,6.10
2023-04-29T02:31:08.124Z,7.10
2023-04-29T02:35:17.227Z,6.07
2023-04-29T02:39:26.512Z,6.67
2023-04-29T02:43:35.622Z,6.17
2023-04-29T02:47:46.136Z,6.43
2023-04-29T02:51:55.247Z,6.10
2023-04-29T02:56:04.221Z,5.67
2023-04-29T03:00:13.981Z,6.40
2023-04-29T03:04:25.076Z,5.83
2023-04-29T03:08:34.318Z,6.23
2023-04-29T03:12:43.356Z,6.27
2023-04-29T03:16:52.542Z,5.40
2023-04-29T03:21:04.740Z,5.73
2023-04-29T03:25:13.998Z,5.60
2023-04-29T03:29:23.017Z,5.90
2023-04-29T03:33:32.072Z,5.87
2023-04-29T03:37:44.797Z,5.33
2023-04-29T03:41:53.834Z,5.97
2023-04-29T03:46:02.931Z,5.63
2023-04-29T03:50:12.569Z,5.27
2023-04-29T03:54:23.159Z,6.40
2023-04-29T03:58:32.393Z,6.00
2023-04-29T04:02:41.803Z,5.87
2023-04-29T04:06:52.128Z,5.67
2023-04-29T04:11:04.996Z,5.97
2023-04-29T04:15:14.113Z,5.03
2023-04-29T04:19:23.225Z,6.13
2023-04-29T04:23:32.279Z,6.10
2023-04-29T04:27:42.838Z,6.03
2023-04-29T04:31:51.780Z,6.00
2023-04-29T04:36:00.934Z,5.87
2023-04-29T04:40:12.278Z,5.80
2023-04-29T04:44:22.889Z,5.47
2023-04-29T04:48:31.916Z,5.43
2023-04-29T04:52:40.992Z,6.10
2023-04-29T04:56:52.564Z,5.33
2023-04-29T05:01:03.728Z,5.27
2023-04-29T05:05:12.831Z,5.03
2023-04-29T05:09:21.889Z,4.27
2023-04-29T05:13:30.938Z,4.50
2023-04-29T05:17:41.572Z,4.50
2023-04-29T05:21:51.090Z,4.80
2023-04-29T05:26:00.099Z,4.13
2023-04-29T05:30:10.153Z,3.53
2023-04-29T05:34:20.821Z,3.47
2023-04-29T05:38:30.422Z,3.60
2023-04-29T05:42:39.476Z,4.00
2023-04-29T05:46:49.037Z,4.10
2023-04-29T05:50:59.766Z,4.10
2023-04-29T05:55:09.197Z,3.20
2023-04-29T05:59:18.229Z,3.87
2023-04-29T06:03:27.405Z,3.60
2023-04-29T06:07:38.312Z,3.43
2023-04-29T06:11:47.440Z,3.20
2023-04-29T06:15:57.688Z,3.17
2023-04-29T06:20:08.531Z,3.07
2023-04-29T06:24:19.943Z,3.43
2023-04-29T06:28:30.546Z,2.97
2023-04-29T06:32:40.687Z,3.33
2023-04-29T06:36:54.306Z,2.83
2023-04-29T06:41:05.868Z,2.53
2023-04-29T06:45:16.141Z,2.57
2023-04-29T06:49:25.953Z,2.70
2023-04-29T06:53:35.892Z,2.40
2023-04-29T06:57:47.620Z,3.20
2023-04-29T07:02:00.033Z,2.83
2023-04-29T07:06:15.173Z,3.27
2023-04-29T07:10:27.271Z,3.20
2023-04-29T07:14:46.680Z,2.40
2023-04-29T07:18:59.431Z,2.80
2023-04-29T07:23:17.814Z,3.10
2023-04-29T07:27:29.687Z,2.90
2023-04-29T07:31:49.225Z,3.37
2023-04-29T07:36:03.575Z,3.03
2023-04-29T07:40:17.076Z,3.37
2023-04-29T07:44:28.653Z,2.73
2023-04-29T07:48:43.633Z,3.40
2023-04-29T07:52:56.030Z,2.57
2023-04-29T07:57:08.169Z,2.80
2023-04-29T08:01:19.192Z,2.70
2023-04-29T08:05:37.404Z,2.80
2023-04-29T08:09:47.203Z,2.73
2023-04-29T08:14:01.677Z,2.40
2023-04-29T08:18:12.107Z,2.90
2023-04-29T08:22:23.968Z,2.60
2023-04-29T08:26:33.241Z,2.97
2023-04-29T08:30:45.250Z,4.33
2023-04-29T08:34:55.971Z,5.00
2023-04-29T08:39:13.256Z,3.80
2023-04-29T08:43:24.573Z,2.73
2023-04-29T08:47:34.734Z,2.60
2023-04-29T08:51:43.837Z,2.43
2023-04-29T08:55:56.763Z,2.47
2023-04-29T09:00:09.053Z,1.40
2023-04-29T09:04:39.441Z,1.97
2023-04-29T09:08:48.800Z,1.50
2023-04-29T09:13:01.926Z,1.33
2023-04-29T09:17:11.054Z,1.60
2023-04-29T09:21:22.810Z,1.40
2023-04-29T09:25:32.402Z,1.90
2023-04-29T09:30:10.035Z,1.80
2023-04-29T09:34:19.308Z,1.73
2023-04-29T09:38:28.325Z,1.47
2023-04-29T09:42:45.056Z,1.50
2023-04-29T09:46:59.333Z,1.53
2023-04-29T09:51:08.453Z,1.40
2023-04-29T09:55:18.876Z,2.13
2023-04-29T09:59:30.350Z,1.60
2023-04-29T10:03:43.088Z,2.37
2023-04-29T10:07:55.038Z,1.70
2023-04-29T10:12:07.989Z,2.87
2023-04-29T10:16:34.734Z,2.00
2023-04-29T10:20:51.375Z,2.40
2023-04-29T10:25:03.919Z,2.43
2023-04-29T10:29:15.778Z,2.37
2023-04-29T10:33:25.417Z,3.00
2023-04-29T10:37:40.477Z,2.67
2023-04-29T10:41:52.716Z,2.67
2023-04-29T10:46:24.948Z,2.80
2023-04-29T10:50:45.708Z,2.17
2023-04-29T10:55:09.352Z,1.90
2023-04-29T10:59:22.292Z,2.67
2023-04-29T11:04:00.751Z,2.83
2023-04-29T11:08:16.723Z,2.73
2023-04-29T11:12:31.435Z,2.90
2023-04-29T11:17:01.942Z,3.00
2023-04-29T11:21:21.916Z,2.87
2023-04-29T11:25:31.105Z,2.50
2023-04-29T11:29:41.833Z,2.70
2023-04-29T11:33:50.959Z,3.23
2023-04-29T11:38:06.259Z,3.23
2023-04-29T11:42:15.312Z,3.20
2023-04-29T11:46:26.005Z,3.30
2023-04-29T11:50:36.690Z,3.00
2023-04-29T11:54:52.631Z,3.60
2023-04-29T11:59:04.209Z,2.70
2023-04-29T12:03:20.577Z,2.93
2023-04-29T12:07:29.900Z,2.83
2023-04-29T12:11:39.802Z,3.40
2023-04-29T12:15:54.982Z,3.33
2023-04-29T12:20:08.494Z,3.50
2023-04-29T12:24:20.060Z,3.00
2023-04-29T12:28:31.060Z,2.67
2023-04-29T12:32:43.399Z,2.90
2023-04-29T12:37:03.058Z,2.93
2023-04-29T12:41:16.860Z,2.83
2023-04-29T12:45:31.472Z,2.97
2023-04-29T12:49:53.518Z,2.87
2023-04-29T12:54:08.050Z,2.53
2023-04-29T12:58:22.206Z,2.97
2023-04-29T13:02:32.696Z,3.30
2023-04-29T13:06:44.268Z,2.60
2023-04-29T13:11:01.684Z,3.10
2023-04-29T13:15:20.397Z,2.90
2023-04-29T13:19:48.083Z,3.20
2023-04-29T13:24:01.707Z,2.87
2023-04-29T13:28:15.013Z,2.37
2023-04-29T13:32:24.934Z,3.00
2023-04-29T13:36:36.679Z,3.17
2023-04-29T13:40:47.251Z,2.83
2023-04-29T13:45:06.896Z,2.80
2023-04-29T13:49:42.282Z,3.13
2023-04-29T13:54:38.256Z,3.20
2023-04-29T13:58:56.262Z,2.83
2023-04-29T14:07:03.265Z,2.73
2023-04-29T14:11:18.731Z,2.93
2023-04-29T14:15:29.083Z,2.80
2023-04-29T14:19:39.819Z,2.60
2023-04-29T14:23:49.087Z,2.40
2023-04-29T14:28:04.331Z,2.40
2023-04-29T14:32:13.598Z,2.10
2023-04-29T14:36:24.688Z,2.67
2023-04-29T14:40:37.980Z,2.70
2023-04-29T14:44:54.777Z,2.13
2023-04-29T14:49:04.613Z,2.53
2023-04-29T14:53:15.535Z,2.40
2023-04-29T14:57:29.891Z,2.47
2023-04-29T15:01:40.161Z,2.40
2023-04-29T15:05:51.697Z,2.80
2023-04-29T15:10:06.889Z,2.43
2023-04-29T15:14:16.785Z,2.43
2023-04-29T15:18:26.755Z,2.27
2023-04-29T15:22:37.687Z,2.60
2023-04-29T15:26:54.737Z,3.13
2023-04-29T15:31:07.251Z,2.60
2023-04-29T15:35:19.242Z,2.07
2023-04-29T15:39:28.464Z,2.57
2023-04-29T15:43:40.535Z,2.40
2023-04-29T15:47:51.919Z,2.90
2023-04-29T15:52:05.941Z,2.67
2023-04-29T15:56:15.153Z,2.47
2023-04-29T16:00:25.936Z,2.20
2023-04-29T16:04:37.025Z,2.60
2023-04-29T16:08:50.496Z,2.20
2023-04-29T16:12:59.580Z,2.40
2023-04-29T16:17:10.307Z,2.60
2023-04-29T16:21:21.892Z,2.40
2023-04-29T16:25:33.363Z,2.47
2023-04-29T16:29:42.520Z,2.27
2023-04-29T16:33:53.279Z,2.50
2023-04-29T16:38:02.657Z,2.40
2023-04-29T16:42:15.128Z,2.53
2023-04-29T16:46:24.590Z,2.90
2023-04-29T16:50:37.097Z,3.00
2023-04-29T16:54:46.538Z,3.17
2023-04-29T16:58:56.014Z,4.80
2023-04-29T17:03:06.928Z,4.90
2023-04-29T17:07:21.064Z,3.43
2023-04-29T17:11:38.434Z,3.03
2023-04-29T17:15:49.394Z,2.70
2023-04-29T17:19:58.847Z,2.50
2023-04-29T17:24:11.432Z,2.20
2023-04-29T17:28:23.053Z,2.37
2023-04-29T17:32:39.642Z,2.60
2023-04-29T17:36:58.047Z,2.50
2023-04-29T17:41:13.252Z,2.33
2023-04-29T17:45:25.839Z,1.67
2023-04-29T17:49:37.936Z,2.20
2023-04-29T17:53:51.601Z,2.10
2023-04-29T17:58:04.430Z,2.00
2023-04-29T18:02:15.623Z,1.87
2023-04-29T18:06:28.694Z,1.50
2023-04-29T18:10:43.042Z,1.70
2023-04-29T18:14:55.964Z,2.40
2023-04-29T18:19:16.685Z,2.10
2023-04-29T18:23:27.627Z,2.30
2023-04-29T18:27:41.196Z,2.80
2023-04-29T18:31:55.876Z,2.97
2023-04-29T18:36:25.705Z,2.50
2023-04-29T18:40:37.301Z,2.80
2023-04-29T18:44:52.015Z,2.70
2023-04-29T18:49:18.124Z,2.57
2023-04-29T18:54:41.345Z,2.70
2023-04-29T18:58:13.225Z,2.10
2023-04-29T19:03:10.313Z,2.23
2023-04-29T19:07:06.972Z,1.80
2023-04-29T19:11:24.159Z,2.47
2023-04-29T19:16:01.025Z,2.27
2023-04-29T19:20:20.680Z,2.60
2023-04-29T19:24:33.492Z,3.17
2023-04-29T19:28:45.683Z,3.07
2023-04-29T19:32:56.233Z,3.40
2023-04-29T19:37:07.213Z,3.40
2023-04-29T19:41:23.310Z,2.93
2023-04-29T19:45:39.015Z,3.10
2023-04-29T19:49:54.889Z,2.60
2023-04-29T19:54:07.541Z,2.60
2023-04-29T19:58:19.858Z,3.10
2023-04-29T20:02:30.444Z,3.33
2023-04-29T20:06:42.003Z,3.23
2023-04-29T20:10:56.964Z,3.30
2023-04-29T20:15:10.836Z,4.00
2023-04-29T20:19:21.883Z,3.33
2023-04-29T20:23:33.237Z,4.10
2023-04-29T20:27:44.476Z,4.13
2023-04-29T20:31:59.322Z,3.67
2023-04-29T20:36:10.617Z,4.97
2023-04-29T20:40:21.124Z,5.07
2023-04-29T20:44:32.240Z,4.37
2023-04-29T20:48:46.617Z,4.73
2023-04-29T20:52:56.670Z,4.20
2023-04-29T20:57:09.104Z,5.50
2023-04-29T21:01:20.946Z,5.40
2023-04-29T21:05:32.939Z,5.20
2023-04-29T21:09:55.376Z,5.63
2023-04-29T21:14:19.746Z,4.17
2023-04-29T21:18:29.865Z,4.67
2023-04-29T21:22:41.518Z,3.70
2023-04-29T21:26:55.480Z,3.57
2023-04-29T21:31:05.840Z,3.50
2023-04-29T21:35:16.563Z,3.83
2023-04-29T21:39:35.568Z,3.77
2023-04-29T21:43:47.694Z,4.23
2023-04-29T21:47:59.970Z,4.40
2023-04-29T21:52:13.012Z,5.17
2023-04-29T21:56:25.340Z,6.33
2023-04-29T22:00:38.456Z,5.73
2023-04-29T22:04:49.121Z,5.50
2023-04-29T22:09:01.009Z,6.30
2023-04-29T22:13:16.734Z,7.33
2023-04-29T22:17:29.763Z,7.10
2023-04-29T22:21:41.675Z,6.27
2023-04-29T22:25:51.938Z,5.93
2023-04-29T22:30:03.749Z,6.97
2023-04-29T22:34:14.657Z,7.40
2023-04-29T22:38:25.472Z,6.53
2023-04-29T22:42:36.385Z,7.97
2023-04-29T22:46:48.404Z,7.63
2023-04-29T22:51:00.696Z,7.63
2023-04-29T22:55:13.028Z,7.93
2023-04-29T22:59:23.964Z,8.70
2023-04-29T23:03:36.394Z,8.00
2023-04-29T23:07:46.933Z,7.60
2023-04-29T23:11:57.567Z,9.03
2023-04-29T23:16:10.644Z,8.33
2023-04-29T23:20:22.554Z,7.60
2023-04-29T23:24:32.585Z,8.33
2023-04-29T23:28:44.948Z,9.07
2023-04-29T23:32:55.444Z,9.37
2023-04-29T23:37:07.423Z,8.53
2023-04-29T23:41:17.669Z,9.27
2023-04-29T23:45:28.948Z,8.07
2023-04-29T23:49:39.282Z,8.43
2023-04-29T23:53:51.979Z,8.70
2023-04-29T23:58:02.771Z,7.53
